Time;durP1;ratioP1;P1;durP2;ratioP2;P2;SDS_P1;SDS_P2;PMS_P1;PMS_P2;Temp;Humidity;BMP_temperature;BMP_pressure;BME280_temperature;BME280_humidity;BME280_pressure;Samples;Min_cycle;Max_cycle;Signal;HPM_P1;HPM_P2
2022/06/05 00:00:20;;;;;;;33.85;23.33;;;11.10;99.90;;;;;;5050326;28;20052;-70
2022/06/05 00:03:09;;;;;;;49.03;24.85;;;11.00;99.90;;;;;;5067848;28;20596;-70
2022/06/05 00:06:02;;;;;;;42.13;24.70;;;11.10;99.90;;;;;;5059265;28;20220;-70
2022/06/05 00:09:05;;;;;;;36.25;22.80;;;11.00;99.90;;;;;;5070562;28;20616;-71
2022/06/05 00:11:43;;;;;;;46.20;23.50;;;10.90;99.90;;;;;;5055663;28;20060;-70
2022/06/05 00:14:09;;;;;;;40.42;24.50;;;10.90;99.90;;;;;;5052775;28;20486;-70
2022/06/05 00:16:35;;;;;;;38.45;23.27;;;10.90;99.90;;;;;;5059560;28;20044;-70
2022/06/05 00:19:03;;;;;;;42.85;22.23;;;11.00;99.90;;;;;;5048862;28;20037;-70
2022/06/05 00:21:28;;;;;;;46.72;26.08;;;11.00;99.90;;;;;;5058460;28;20068;-70
2022/06/05 00:23:54;;;;;;;39.45;22.85;;;10.90;99.90;;;;;;5048365;28;20048;-70
2022/06/05 00:26:48;;;;;;;40.85;24.27;;;10.90;99.90;;;;;;5055336;28;20033;-70
2022/06/05 00:29:36;;;;;;;42.38;25.17;;;10.90;99.90;;;;;;5035391;28;20045;-70
2022/06/05 00:32:09;;;;;;;;;;;10.80;99.90;;;;;;5059331;28;20048;-70
2022/06/05 00:34:34;;;;;;;42.92;25.60;;;10.80;99.90;;;;;;5047746;28;20381;-70
2022/06/05 00:37:09;;;;;;;36.47;22.80;;;10.80;99.90;;;;;;5058497;28;20040;-70
2022/06/05 00:39:59;;;;;;;46.90;24.65;;;10.70;99.90;;;;;;5063388;28;20041;-70
2022/06/05 00:42:29;;;;;;;43.05;24.85;;;10.80;99.90;;;;;;5048376;28;20084;-70
2022/06/05 00:45:06;;;;;;;44.40;23.45;;;10.70;99.90;;;;;;5063007;28;20029;-70
2022/06/05 00:47:33;;;;;;;39.35;23.80;;;10.70;99.90;;;;;;5049248;28;20560;-70
2022/06/05 00:50:04;;;;;;;54.67;23.80;;;10.70;99.90;;;;;;5049659;28;20044;-70
2022/06/05 00:52:33;;;;;;;49.60;24.55;;;10.60;99.90;;;;;;5048528;28;20061;-70
2022/06/05 00:54:59;;;;;;;42.25;25.33;;;10.70;99.90;;;;;;5046815;28;20061;-70
2022/06/05 00:57:31;;;;;;;44.15;25.15;;;10.70;99.90;;;;;;5048013;28;20041;-70
2022/06/05 00:59:59;;;;;;;44.60;23.90;;;10.70;99.90;;;;;;5048438;28;20490;-70
2022/06/05 01:02:25;;;;;;;39.13;24.67;;;10.70;99.90;;;;;;5059407;28;20577;-70
2022/06/05 01:04:51;;;;;;;38.47;22.45;;;10.80;99.90;;;;;;5047129;28;20087;-70
2022/06/05 01:07:20;;;;;;;47.53;24.80;;;10.80;99.90;;;;;;5046759;28;20053;-70
2022/06/05 01:09:47;;;;;;;40.17;24.63;;;10.80;99.90;;;;;;5049103;28;20144;-70
2022/06/05 01:12:28;;;;;;;40.47;21.55;;;10.80;99.90;;;;;;5048160;28;20417;-70
2022/06/05 01:15:18;;;;;;;45.50;23.65;;;10.80;99.90;;;;;;5065605;28;20091;-70
2022/06/05 01:18:14;;;;;;;40.38;25.35;;;10.70;99.90;;;;;;5049194;28;20040;-70
2022/06/05 01:21:00;;;;;;;39.90;24.02;;;10.70;99.90;;;;;;5053684;28;20456;-70
2022/06/05 01:23:49;;;;;;;42.47;25.20;;;10.70;99.90;;;;;;5046358;28;20049;-70
2022/06/05 01:26:36;;;;;;;53.00;24.88;;;10.70;99.90;;;;;;5048604;28;20425;-70
2022/06/05 01:29:18;;;;;;;40.50;22.77;;;10.70;99.90;;;;;;5061035;28;20056;-70
2022/06/05 01:31:51;;;;;;;44.40;24.83;;;10.70;99.90;;;;;;5054847;28;20485;-70
2022/06/05 01:34:33;;;;;;;48.55;25.48;;;10.70;99.90;;;;;;5051194;28;20120;-70
2022/06/05 01:37:20;;;;;;;46.08;23.95;;;10.70;99.90;;;;;;5047619;28;20053;-70
2022/06/05 01:39:58;;;;;;;39.80;23.07;;;10.70;99.90;;;;;;5059952;28;20037;-70
2022/06/05 01:42:31;;;;;;;38.50;24.75;;;10.70;99.90;;;;;;5055857;28;20465;-70
2022/06/05 01:45:06;;;;;;;43.33;24.88;;;10.60;99.90;;;;;;5046250;28;20047;-70
2022/06/05 01:47:37;;;;;;;61.38;26.08;;;10.60;99.90;;;;;;5059323;28;20120;-70
2022/06/05 01:50:03;;;;;;;40.17;24.60;;;10.60;99.90;;;;;;5051081;28;20078;-70
2022/06/05 01:52:40;;;;;;;42.60;24.88;;;10.60;99.90;;;;;;5047211;28;20057;-70
2022/06/05 01:55:12;;;;;;;46.58;23.90;;;10.60;99.90;;;;;;5046017;28;20041;-69
2022/06/05 01:57:38;;;;;;;44.22;23.27;;;10.70;99.90;;;;;;5056239;28;20049;-70
2022/06/05 02:00:15;;;;;;;53.75;25.05;;;10.60;99.90;;;;;;5048737;28;20037;-70
2022/06/05 02:03:06;;;;;;;47.17;25.77;;;10.60;99.90;;;;;;5057069;28;20056;-70
2022/06/05 02:05:43;;;;;;;41.50;23.50;;;10.60;99.90;;;;;;5054743;28;20044;-70
2022/06/05 02:08:19;;;;;;;54.42;25.50;;;10.50;99.90;;;;;;5068370;28;20124;-70
2022/06/05 02:10:54;;;;;;;37.95;24.92;;;10.50;99.90;;;;;;5059325;28;20044;-70
2022/06/05 02:13:20;;;;;;;44.03;24.73;;;10.50;99.90;;;;;;5049991;28;20122;-70
2022/06/05 02:15:47;;;;;;;40.70;24.77;;;10.40;99.90;;;;;;5057356;28;20818;-70
2022/06/05 02:18:13;;;;;;;54.85;26.75;;;10.40;99.90;;;;;;5057083;28;20119;-70
2022/06/05 02:20:41;;;;;;;44.67;23.80;;;10.40;99.90;;;;;;5065137;28;20090;-70
2022/06/05 02:23:15;;;;;;;38.97;24.05;;;10.50;99.90;;;;;;5059298;28;20466;-70
2022/06/05 02:25:42;;;;;;;41.80;24.75;;;10.50;99.90;;;;;;5063205;28;20127;-70
2022/06/05 02:28:13;;;;;;;47.22;25.88;;;10.50;99.90;;;;;;5052286;28;20083;-70
2022/06/05 02:31:18;;;;;;;39.63;24.77;;;10.50;99.90;;;;;;5052112;28;20047;-70
2022/06/05 02:34:03;;;;;;;41.55;24.45;;;10.60;99.90;;;;;;5053081;28;20148;-70
2022/06/05 02:36:38;;;;;;;40.05;23.08;;;10.60;99.90;;;;;;5054038;28;20080;-70
2022/06/05 02:39:38;;;;;;;46.20;23.90;;;10.60;99.90;;;;;;5066207;28;20618;-70
2022/06/05 02:42:31;;;;;;;47.05;24.83;;;10.60;99.90;;;;;;5046802;28;20163;-70
2022/06/05 02:45:05;;;;;;;37.90;23.45;;;10.50;99.90;;;;;;5052264;28;20466;-70
2022/06/05 02:48:03;;;;;;;49.47;26.02;;;10.50;99.90;;;;;;5051972;28;20053;-71
2022/06/05 02:50:43;;;;;;;44.63;23.77;;;10.50;99.90;;;;;;5050405;28;20120;-70
2022/06/05 02:53:10;;;;;;;44.58;25.98;;;10.50;99.90;;;;;;5057974;28;20045;-70
2022/06/05 02:55:37;;;;;;;43.67;24.08;;;10.50;99.90;;;;;;5053303;28;20049;-70
2022/06/05 02:58:03;;;;;;;48.55;25.95;;;10.40;99.90;;;;;;5050639;28;20520;-70
2022/06/05 03:00:35;;;;;;;57.25;25.85;;;10.40;99.90;;;;;;5049820;28;20033;-70
2022/06/05 03:05:46;;;;;;;44.17;25.10;;;10.40;99.90;;;;;;5053617;28;20111;-70
2022/06/05 03:08:15;;;;;;;42.78;26.05;;;10.40;99.90;;;;;;5053706;28;20080;-70
2022/06/05 03:10:42;;;;;;;47.47;25.98;;;10.50;99.90;;;;;;5060478;28;20056;-70
2022/06/05 03:13:08;;;;;;;45.83;25.48;;;10.40;99.90;;;;;;5049814;28;20382;-70
2022/06/05 03:15:34;;;;;;;54.35;27.40;;;10.50;99.90;;;;;;5057678;28;20047;-70
2022/06/05 03:18:01;;;;;;;48.65;25.80;;;10.50;99.90;;;;;;5060065;28;20044;-70
2022/06/05 03:20:26;;;;;;;41.42;24.98;;;10.50;99.90;;;;;;5053409;28;20557;-70
2022/06/05 03:22:53;;;;;;;48.75;27.55;;;10.50;99.90;;;;;;5050426;28;20059;-70
2022/06/05 03:25:22;;;;;;;61.22;27.52;;;10.50;99.90;;;;;;5048779;28;20064;-70
2022/06/05 03:27:48;;;;;;;52.65;29.90;;;10.50;99.90;;;;;;5051699;28;20045;-70
2022/06/05 03:30:15;;;;;;;50.95;27.63;;;10.50;99.90;;;;;;5052472;28;20422;-70
2022/06/05 03:32:42;;;;;;;43.45;27.67;;;10.50;99.90;;;;;;5054656;28;20044;-69
2022/06/05 03:35:08;;;;;;;46.83;26.70;;;10.50;99.90;;;;;;5054676;28;20055;-69
2022/06/05 03:37:34;;;;;;;47.42;27.30;;;10.50;99.90;;;;;;5061124;28;20077;-69
2022/06/05 03:39:59;;;;;;;53.97;27.48;;;10.60;99.90;;;;;;5051867;28;20123;-68
2022/06/05 03:42:25;;;;;;;53.80;28.02;;;10.60;99.90;;;;;;5066253;28;20044;-69
2022/06/05 03:44:51;;;;;;;51.10;27.83;;;10.60;99.90;;;;;;5060283;28;20051;-69
2022/06/05 03:47:16;;;;;;;48.85;27.98;;;10.60;99.90;;;;;;5055505;28;20036;-68
2022/06/05 03:49:42;;;;;;;55.60;26.92;;;10.60;99.90;;;;;;5055932;28;20429;-68
2022/06/05 03:52:10;;;;;;;47.83;28.20;;;10.60;99.90;;;;;;5054610;28;20052;-68
2022/06/05 03:54:36;;;;;;;48.83;28.05;;;10.70;99.90;;;;;;5053828;28;20044;-67
2022/06/05 03:57:04;;;;;;;47.03;26.55;;;10.70;99.90;;;;;;5048848;28;20037;-67
2022/06/05 03:59:29;;;;;;;45.90;25.17;;;10.70;99.90;;;;;;5050934;28;20143;-68
2022/06/05 04:01:55;;;;;;;49.28;27.10;;;10.70;99.90;;;;;;5047789;28;20507;-68
2022/06/05 04:04:21;;;;;;;46.53;27.70;;;10.70;99.90;;;;;;5048034;28;20036;-68
2022/06/05 04:06:48;;;;;;;49.90;27.45;;;10.80;99.90;;;;;;5048556;28;20068;-68
2022/06/05 04:09:14;;;;;;;46.75;27.42;;;10.80;99.90;;;;;;5050408;28;20089;-68
2022/06/05 04:11:40;;;;;;;53.83;28.58;;;10.90;99.90;;;;;;5048181;28;20048;-68
2022/06/05 04:14:07;;;;;;;56.83;27.98;;;11.00;99.90;;;;;;5053459;28;20171;-68
2022/06/05 04:16:35;;;;;;;47.80;27.75;;;11.00;99.90;;;;;;5052977;28;20037;-68
2022/06/05 04:19:01;;;;;;;46.30;26.23;;;11.10;99.90;;;;;;5051978;28;20056;-69
2022/06/05 04:21:30;;;;;;;53.13;27.25;;;11.20;99.90;;;;;;5049947;28;20041;-68
2022/06/05 04:23:55;;;;;;;;;;;11.30;99.90;;;;;;5062964;28;20036;-69
2022/06/05 04:26:30;;;;;;;46.88;28.30;;;11.30;99.90;;;;;;5052455;28;19931;-69
2022/06/05 04:28:56;;;;;;;49.97;27.65;;;11.30;99.90;;;;;;5036339;28;20084;-70
2022/06/05 04:31:35;;;;;;;51.05;27.42;;;11.30;99.90;;;;;;5046981;28;20114;-70
2022/06/05 04:34:03;;;;;;;48.25;28.85;;;11.40;99.90;;;;;;5060830;28;20053;-70
2022/06/05 04:36:29;;;;;;;48.25;26.63;;;11.40;99.90;;;;;;5048763;28;20088;-70
2022/06/05 04:38:55;;;;;;;43.90;26.92;;;11.40;99.90;;;;;;5060935;28;20037;-70
2022/06/05 04:41:21;;;;;;;62.28;30.27;;;11.50;99.90;;;;;;5056760;28;20048;-69
2022/06/05 04:43:48;;;;;;;49.58;27.25;;;11.50;99.90;;;;;;5047819;28;20052;-69
2022/06/05 04:46:16;;;;;;;52.72;28.13;;;11.60;99.90;;;;;;5056181;28;20053;-69
2022/06/05 04:48:42;;;;;;;44.28;27.20;;;11.70;99.90;;;;;;5061473;28;20048;-70
2022/06/05 04:51:09;;;;;;;52.42;30.00;;;11.80;99.90;;;;;;5056486;28;20029;-69
2022/06/05 04:53:36;;;;;;;54.25;29.27;;;11.90;99.90;;;;;;5054566;28;20057;-70
2022/06/05 04:56:06;;;;;;;52.67;31.05;;;12.00;99.90;;;;;;5051450;28;20050;-70
2022/06/05 04:58:32;;;;;;;45.85;27.45;;;12.10;99.90;;;;;;5054178;28;20060;-69
2022/06/05 05:00:58;;;;;;;44.97;28.20;;;12.20;99.90;;;;;;5052341;28;20550;-70
2022/06/05 05:03:23;;;;;;;42.67;28.00;;;12.40;99.90;;;;;;5058032;28;20093;-70
2022/06/05 05:05:49;;;;;;;46.53;27.20;;;12.40;99.90;;;;;;5047628;28;20049;-70
2022/06/05 05:08:15;;;;;;;50.35;28.92;;;12.50;99.90;;;;;;5048696;28;20098;-70
2022/06/05 05:10:42;;;;;;;44.03;27.38;;;12.60;99.90;;;;;;5028409;28;20497;-69
2022/06/05 05:13:08;;;;;;;47.13;28.13;;;12.80;99.90;;;;;;5056237;28;20044;-69
2022/06/05 05:15:34;;;;;;;47.03;28.23;;;12.80;99.90;;;;;;5046885;28;20409;-69
2022/06/05 05:18:00;;;;;;;53.00;28.50;;;12.90;99.90;;;;;;5060428;28;20048;-71
2022/06/05 05:20:26;;;;;;;44.03;26.90;;;13.00;99.90;;;;;;5048514;28;20720;-70
2022/06/05 05:22:52;;;;;;;42.88;27.95;;;13.00;99.90;;;;;;5052020;28;20048;-69
2022/06/05 05:25:18;;;;;;;43.25;25.35;;;13.00;99.90;;;;;;5047905;28;20037;-70
2022/06/05 05:27:44;;;;;;;43.25;26.05;;;13.10;99.90;;;;;;5051634;28;20045;-70
2022/06/05 05:30:11;;;;;;;54.13;27.88;;;13.20;99.90;;;;;;5050009;28;20037;-70
2022/06/05 05:32:38;;;;;;;39.30;25.33;;;13.20;99.90;;;;;;5046789;28;20059;-71
2022/06/05 05:35:05;;;;;;;41.90;27.13;;;13.30;99.90;;;;;;5053727;28;20041;-70
2022/06/05 05:37:31;;;;;;;47.70;27.83;;;13.40;99.90;;;;;;5046179;28;20045;-70
2022/06/05 05:42:41;;;;;;;42.63;25.45;;;13.50;99.90;;;;;;5054186;28;20045;-71
2022/06/05 05:45:08;;;;;;;36.72;24.83;;;13.60;99.90;;;;;;5064597;28;20041;-70
2022/06/05 05:47:34;;;;;;;45.78;27.08;;;13.70;99.90;;;;;;5062790;28;20111;-70
2022/06/05 05:50:06;;;;;;;42.95;26.50;;;13.70;99.90;;;;;;5049443;28;20044;-70
2022/06/05 05:52:33;;;;;;;42.30;25.52;;;13.70;99.90;;;;;;5061750;28;20091;-70
2022/06/05 05:54:59;;;;;;;50.55;28.45;;;13.70;99.90;;;;;;5048061;28;20126;-69
2022/06/05 05:57:26;;;;;;;36.80;24.30;;;13.80;99.90;;;;;;5052283;28;20099;-70
2022/06/05 05:59:52;;;;;;;38.05;27.38;;;13.90;99.90;;;;;;5058057;28;20044;-71
2022/06/05 06:02:21;;;;;;;39.08;26.38;;;13.90;99.90;;;;;;5055302;28;20060;-71
2022/06/05 06:04:49;;;;;;;40.42;25.15;;;14.10;99.90;;;;;;5061958;28;20591;-71
2022/06/05 06:07:16;;;;;;;39.13;25.13;;;14.10;99.90;;;;;;5056752;28;20138;-71
2022/06/05 06:09:42;;;;;;;40.15;27.80;;;14.10;99.90;;;;;;5057834;28;20585;-71
2022/06/05 06:12:09;;;;;;;38.50;26.25;;;14.20;99.90;;;;;;5058655;28;20044;-71
2022/06/05 06:14:35;;;;;;;43.70;26.38;;;14.30;99.90;;;;;;5040403;28;20171;-71
2022/06/05 06:17:02;;;;;;;41.53;25.13;;;14.40;99.90;;;;;;5059916;28;20040;-70
2022/06/05 06:19:27;;;;;;;34.63;23.77;;;14.40;99.90;;;;;;5055290;28;20064;-71
2022/06/05 06:21:53;;;;;;;38.00;24.50;;;14.50;99.90;;;;;;5059722;28;20040;-71
2022/06/05 06:24:19;;;;;;;37.90;24.58;;;14.60;99.90;;;;;;5072537;28;20508;-71
2022/06/05 06:26:44;;;;;;;43.83;26.50;;;14.60;99.90;;;;;;5071371;28;20082;-71
2022/06/05 06:29:11;;;;;;;37.85;25.60;;;14.70;99.90;;;;;;5073415;28;20659;-71
2022/06/05 06:31:38;;;;;;;35.67;22.90;;;14.80;99.90;;;;;;5072653;28;20566;-72
2022/06/05 06:34:05;;;;;;;40.60;24.90;;;14.90;99.90;;;;;;5071846;28;20036;-71
2022/06/05 06:36:32;;;;;;;38.05;24.45;;;14.90;99.90;;;;;;5073898;28;20044;-71
2022/06/05 06:38:58;;;;;;;38.95;24.02;;;15.00;99.90;;;;;;5072918;28;20119;-71
2022/06/05 06:41:24;;;;;;;38.33;23.75;;;15.10;99.90;;;;;;5072663;28;20039;-71
2022/06/05 06:43:50;;;;;;;34.78;24.25;;;15.20;99.90;;;;;;5071171;28;20044;-71
2022/06/05 06:46:17;;;;;;;36.72;23.92;;;15.30;99.90;;;;;;5078126;28;20056;-71
2022/06/05 06:48:43;;;;;;;32.80;24.20;;;15.40;99.90;;;;;;5071960;28;20105;-72
2022/06/05 06:51:10;;;;;;;37.88;24.75;;;15.50;99.90;;;;;;5078773;28;20066;-71
2022/06/05 06:53:37;;;;;;;36.80;23.38;;;15.60;99.90;;;;;;5074905;28;20062;-71
2022/06/05 06:56:12;;;;;;;32.50;23.45;;;15.70;99.90;;;;;;5076004;28;20044;-71
2022/06/05 06:58:39;;;;;;;31.83;23.40;;;15.80;99.90;;;;;;5079510;28;20040;-71
2022/06/05 07:01:06;;;;;;;39.10;25.03;;;16.00;99.90;;;;;;5071330;28;20102;-71
2022/06/05 07:03:33;;;;;;;34.42;22.02;;;16.20;99.90;;;;;;5071357;28;20047;-72
2022/06/05 07:06:00;;;;;;;33.50;23.65;;;16.40;99.90;;;;;;5061400;28;20048;-72
2022/06/05 07:08:26;;;;;;;34.45;22.58;;;16.50;99.90;;;;;;5058690;28;20124;-72
2022/06/05 07:10:53;;;;;;;26.95;19.98;;;16.60;99.90;;;;;;5069669;28;20043;-71
2022/06/05 07:13:18;;;;;;;29.88;21.73;;;16.70;99.90;;;;;;5079073;28;20072;-72
2022/06/05 07:15:44;;;;;;;28.90;20.98;;;16.80;99.90;;;;;;5074408;28;20855;-69
2022/06/05 07:18:13;;;;;;;30.55;21.33;;;16.80;99.90;;;;;;5068570;28;20044;-71
2022/06/05 07:20:42;;;;;;;33.67;21.70;;;17.00;99.90;;;;;;5073091;28;20429;-70
2022/06/05 07:23:09;;;;;;;26.33;19.90;;;17.20;99.90;;;;;;5074681;28;20040;-70
2022/06/05 07:25:35;;;;;;;24.63;19.52;;;17.40;99.90;;;;;;5075822;28;20071;-70
2022/06/05 07:28:02;;;;;;;29.50;21.45;;;17.60;99.90;;;;;;5077793;28;20079;-70
2022/06/05 07:30:28;;;;;;;27.35;20.30;;;17.70;99.90;;;;;;5073342;28;20040;-70
2022/06/05 07:32:55;;;;;;;24.88;19.55;;;17.80;99.90;;;;;;5077565;28;20595;-70
2022/06/05 07:35:21;;;;;;;25.55;19.98;;;18.00;99.90;;;;;;5075398;28;20138;-70
2022/06/05 07:37:47;;;;;;;32.00;20.92;;;18.10;99.90;;;;;;5075785;28;20156;-70
2022/06/05 07:40:14;;;;;;;25.88;19.65;;;18.10;99.90;;;;;;5074371;28;20049;-70
2022/06/05 07:42:41;;;;;;;28.73;20.88;;;18.20;99.90;;;;;;5074293;28;20135;-69
2022/06/05 07:45:08;;;;;;;31.88;20.15;;;18.30;99.90;;;;;;5072529;28;20048;-69
2022/06/05 07:47:34;;;;;;;23.05;19.95;;;18.40;99.90;;;;;;5075108;28;20391;-69
2022/06/05 07:50:00;;;;;;;25.45;20.02;;;18.50;99.90;;;;;;5076726;28;20055;-69
2022/06/05 07:55:11;;;;;;;24.70;18.02;;;18.60;99.90;;;;;;5050620;28;20048;-69
2022/06/05 07:57:37;;;;;;;26.48;20.90;;;18.70;99.90;;;;;;5050585;28;20080;-71
2022/06/05 08:00:05;;;;;;;30.15;20.15;;;18.80;99.90;;;;;;5055965;28;20506;-70
2022/06/05 08:02:31;;;;;;;26.65;20.20;;;18.90;99.90;;;;;;5051435;28;20045;-72
2022/06/05 08:04:58;;;;;;;29.10;19.88;;;19.00;99.90;;;;;;5057191;28;20037;-71
2022/06/05 08:07:29;;;;;;;26.88;19.35;;;19.10;99.90;;;;;;5055920;28;20208;-70
2022/06/05 08:09:55;;;;;;;21.58;18.95;;;19.30;99.90;;;;;;5047923;28;20413;-70
2022/06/05 08:12:23;;;;;;;26.25;19.63;;;19.30;99.90;;;;;;5047958;28;20064;-70
2022/06/05 08:14:50;;;;;;;23.60;19.08;;;19.20;99.90;;;;;;5053381;28;20045;-70
2022/06/05 08:17:22;;;;;;;21.15;18.52;;;19.30;99.90;;;;;;5047263;28;20053;-70
2022/06/05 08:19:48;;;;;;;24.75;19.98;;;19.30;99.90;;;;;;5056269;28;20044;-70
2022/06/05 08:22:16;;;;;;;25.58;20.13;;;19.30;99.90;;;;;;5048182;28;20600;-70
2022/06/05 08:24:41;;;;;;;25.30;19.05;;;19.30;99.90;;;;;;5053372;28;20101;-71
2022/06/05 08:27:10;;;;;;;23.98;19.60;;;19.30;99.90;;;;;;5052901;28;20076;-70
2022/06/05 08:29:36;;;;;;;23.92;19.83;;;19.30;99.90;;;;;;5059012;28;20514;-70
2022/06/05 08:32:02;;;;;;;31.38;21.23;;;19.40;99.90;;;;;;5048340;28;20123;-70
2022/06/05 08:34:28;;;;;;;28.17;19.52;;;19.40;99.90;;;;;;5048389;28;20077;-70
2022/06/05 08:42:49;;;;;;;28.23;18.75;;;19.60;99.90;;;;;;5049824;28;20132;-70
2022/06/05 08:45:34;;;;;;;26.27;20.45;;;19.60;99.90;;;;;;5055378;28;20055;-70
2022/06/05 08:48:05;;;;;;;26.83;19.23;;;19.60;99.90;;;;;;5049100;28;20455;-70
2022/06/05 08:50:53;;;;;;;23.40;20.65;;;19.60;99.90;;;;;;5049331;28;20049;-70
2022/06/05 08:53:47;;;;;;;23.85;19.92;;;19.70;99.90;;;;;;5060543;28;20060;-71
2022/06/05 08:56:19;;;;;;;27.95;24.95;;;19.70;99.90;;;;;;5049081;28;20139;-70
2022/06/05 08:58:53;;;;;;;26.25;20.75;;;19.70;99.90;;;;;;5051886;28;20086;-70
2022/06/05 09:01:33;;;;;;;32.00;21.67;;;19.80;99.90;;;;;;5053739;28;20081;-71
2022/06/05 09:04:45;;;;;;;36.80;19.33;;;20.10;99.90;;;;;;5052758;28;20533;-70
2022/06/05 09:07:15;;;;;;;22.60;19.48;;;20.10;99.90;;;;;;5037006;28;20502;-70
2022/06/05 09:09:46;;;;;;;23.10;19.92;;;20.20;99.90;;;;;;5063636;28;20048;-71
2022/06/05 09:12:32;;;;;;;23.33;19.30;;;20.30;99.90;;;;;;5066485;28;20173;-70
2022/06/05 09:15:19;;;;;;;25.88;20.90;;;20.40;99.90;;;;;;5056891;28;20072;-70
2022/06/05 09:17:59;;;;;;;23.08;19.67;;;20.60;99.90;;;;;;5058571;28;20412;-70
2022/06/05 09:20:53;;;;;;;30.73;21.92;;;20.90;99.90;;;;;;5064149;28;20044;-70
2022/06/05 09:23:44;;;;;;;24.83;21.08;;;21.00;99.90;;;;;;5047993;28;20184;-70
2022/06/05 09:26:22;;;;;;;25.70;21.10;;;20.90;99.90;;;;;;5027407;28;20075;-71
2022/06/05 09:28:56;;;;;;;26.77;21.27;;;20.90;99.90;;;;;;5050089;28;20873;-70
2022/06/05 09:31:50;;;;;;;30.73;19.33;;;21.00;99.90;;;;;;5048056;28;20049;-71
2022/06/05 09:34:24;;;;;;;21.98;19.42;;;21.10;99.90;;;;;;5053039;28;20113;-70
2022/06/05 09:37:03;;;;;;;26.73;21.08;;;21.30;99.90;;;;;;5053281;28;20098;-71
2022/06/05 09:39:34;;;;;;;24.70;20.35;;;21.30;99.90;;;;;;5048936;28;20049;-70
2022/06/05 09:42:29;;;;;;;22.35;19.70;;;21.20;99.90;;;;;;5050531;28;20041;-71
2022/06/05 09:45:00;;;;;;;26.17;20.77;;;21.30;99.90;;;;;;5053400;28;20045;-70
2022/06/05 09:48:04;;;;;;;25.73;21.33;;;21.30;99.90;;;;;;5051633;28;20076;-70
2022/06/05 09:50:30;;;;;;;23.80;20.30;;;21.40;99.90;;;;;;5009419;28;20054;-71
2022/06/05 09:52:57;;;;;;;30.45;21.10;;;21.50;99.90;;;;;;5046939;28;20045;-70
2022/06/05 09:55:41;;;;;;;21.63;19.42;;;21.60;99.90;;;;;;5048122;28;20053;-70
2022/06/05 09:58:25;;;;;;;23.45;20.98;;;21.60;99.90;;;;;;5060058;28;20052;-70
2022/06/05 10:00:59;;;;;;;22.38;19.85;;;21.70;99.90;;;;;;5045807;28;20049;-71
2022/06/05 10:03:35;;;;;;;22.38;19.85;;;21.80;99.90;;;;;;5046638;28;20049;-70
2022/06/05 10:06:34;;;;;;;22.25;19.92;;;21.90;99.90;;;;;;5052665;28;20041;-70
2022/06/05 10:09:20;;;;;;;27.35;21.85;;;22.00;99.90;;;;;;5065653;28;20056;-69
2022/06/05 10:11:52;;;;;;;23.65;21.10;;;21.90;99.90;;;;;;5046198;28;20048;-71
2022/06/05 10:14:42;;;;;;;23.33;20.83;;;22.10;99.90;;;;;;5055036;28;20048;-70
2022/06/05 10:17:35;;;;;;;25.55;18.48;;;22.10;99.90;;;;;;5053688;28;20047;-71
2022/06/05 10:20:12;;;;;;;22.15;19.83;;;22.20;99.90;;;;;;5049344;28;20044;-70
2022/06/05 10:22:49;;;;;;;26.60;19.15;;;22.20;99.90;;;;;;5045647;28;20056;-70
2022/06/05 10:25:20;;;;;;;25.63;21.55;;;22.40;99.90;;;;;;5065928;28;20123;-71
2022/06/05 10:27:55;;;;;;;24.20;20.70;;;22.40;99.90;;;;;;5059236;28;20493;-70
2022/06/05 10:30:26;;;;;;;21.92;19.80;;;22.40;99.90;;;;;;5058624;28;20059;-70
2022/06/05 10:33:23;;;;;;;25.73;21.05;;;22.30;99.90;;;;;;5070624;28;20044;-70
2022/06/05 10:36:01;;;;;;;;;;;22.40;99.90;;;;;;5050956;28;20128;-70
2022/06/05 10:38:40;;;;;;;23.60;21.08;;;22.30;99.90;;;;;;5064532;28;19920;-70
2022/06/05 10:41:24;;;;;;;28.05;22.77;;;22.40;99.90;;;;;;5049602;28;20045;-71
2022/06/05 10:44:49;;;;;;;23.20;20.17;;;22.50;99.90;;;;;;5063948;28;20041;-70
2022/06/05 10:47:34;;;;;;;23.05;19.25;;;22.70;99.90;;;;;;5033832;28;20057;-70
2022/06/05 10:50:17;;;;;;;24.58;20.90;;;22.70;99.90;;;;;;5061746;28;20047;-71
2022/06/05 10:53:06;;;;;;;22.15;19.85;;;22.70;99.90;;;;;;5054786;28;20060;-70
2022/06/05 10:55:56;;;;;;;23.27;20.90;;;22.70;99.90;;;;;;5063498;28;20075;-70
2022/06/05 10:58:34;;;;;;;30.05;23.60;;;22.80;99.90;;;;;;5059364;28;20082;-70
2022/06/05 11:01:05;;;;;;;26.10;21.85;;;22.90;99.90;;;;;;5053215;28;20053;-70
2022/06/05 11:03:52;;;;;;;24.90;22.25;;;23.10;99.90;;;;;;5058313;28;20057;-71
2022/06/05 11:06:44;;;;;;;26.08;20.48;;;23.10;99.90;;;;;;5049611;28;20056;-70
2022/06/05 11:09:37;;;;;;;23.67;20.88;;;23.10;99.90;;;;;;5050263;28;20053;-71
2022/06/05 11:15:04;;;;;;;31.25;22.85;;;23.00;99.90;;;;;;5057086;28;20045;-70
2022/06/05 11:17:39;;;;;;;22.85;20.75;;;23.00;99.90;;;;;;5049555;28;20063;-70
2022/06/05 11:20:08;;;;;;;23.52;21.05;;;23.10;99.90;;;;;;5063832;28;20123;-70
2022/06/05 11:22:38;;;;;;;24.55;22.13;;;23.10;99.90;;;;;;5051111;28;20052;-72
2022/06/05 11:25:59;;;;;;;23.55;21.10;;;23.00;99.90;;;;;;5063548;28;20041;-72
2022/06/05 11:28:56;;;;;;;25.77;23.17;;;22.90;99.90;;;;;;5017267;28;20107;-71
2022/06/05 11:31:40;;;;;;;24.85;22.55;;;22.90;99.90;;;;;;5048372;28;20044;-70
2022/06/05 11:34:32;;;;;;;24.23;21.90;;;23.00;99.90;;;;;;5048634;28;20052;-70
2022/06/05 11:37:15;;;;;;;23.77;21.45;;;22.90;99.90;;;;;;5048952;28;20091;-70
2022/06/05 11:40:05;;;;;;;24.20;21.98;;;22.90;99.90;;;;;;5061221;28;20453;-70
2022/06/05 11:42:44;;;;;;;23.55;21.17;;;22.90;99.90;;;;;;5050588;28;20061;-70
2022/06/05 11:45:37;;;;;;;23.30;20.95;;;22.90;99.90;;;;;;5050189;28;20085;-70
2022/06/05 11:48:13;;;;;;;23.33;21.05;;;22.90;99.90;;;;;;5049866;28;20049;-71
2022/06/05 11:51:19;;;;;;;24.70;22.35;;;22.80;99.90;;;;;;5049183;28;20398;-70
2022/06/05 11:54:19;;;;;;;23.65;21.27;;;22.80;99.90;;;;;;5047714;28;20068;-71
2022/06/05 11:57:06;;;;;;;24.45;21.70;;;22.70;99.90;;;;;;5047881;28;20098;-71
2022/06/05 11:59:39;;;;;;;22.98;20.45;;;22.60;99.90;;;;;;5055154;28;20051;-71
2022/06/05 12:02:08;;;;;;;24.48;22.00;;;22.50;99.90;;;;;;5049584;28;20063;-70
2022/06/05 12:05:09;;;;;;;25.85;23.30;;;22.50;99.90;;;;;;5052216;28;20077;-70
2022/06/05 12:07:36;;;;;;;25.65;23.05;;;22.50;99.90;;;;;;4981901;28;20056;-70
2022/06/05 12:10:10;;;;;;;25.60;23.15;;;22.50;99.90;;;;;;5051153;28;20120;-70
2022/06/05 12:12:44;;;;;;;26.65;23.52;;;22.50;99.90;;;;;;5052537;28;20081;-71
2022/06/05 12:15:28;;;;;;;26.27;22.60;;;22.40;99.90;;;;;;5059019;28;20127;-72
2022/06/05 12:17:56;;;;;;;26.17;23.55;;;22.30;99.90;;;;;;5051990;28;20098;-71
2022/06/05 12:20:36;;;;;;;29.83;23.80;;;22.30;99.90;;;;;;5051447;28;20032;-71
2022/06/05 12:23:25;;;;;;;25.70;23.05;;;22.20;99.90;;;;;;5054648;28;20110;-70
2022/06/05 12:25:56;;;;;;;26.63;23.70;;;22.20;99.90;;;;;;5054530;28;20041;-71
2022/06/05 12:28:38;;;;;;;26.33;23.38;;;22.10;99.90;;;;;;5054289;28;20040;-71
2022/06/05 12:31:15;;;;;;;29.23;24.05;;;22.10;99.90;;;;;;5056941;28;20211;-71
2022/06/05 12:33:56;;;;;;;26.63;24.03;;;22.10;99.90;;;;;;5064819;28;20055;-71
2022/06/05 12:36:24;;;;;;;24.65;22.13;;;22.10;99.90;;;;;;5048390;28;20418;-71
2022/06/05 12:38:58;;;;;;;23.60;21.10;;;22.10;99.90;;;;;;5060166;28;20040;-71
2022/06/05 12:41:42;;;;;;;23.80;21.60;;;22.10;99.90;;;;;;5058529;28;20064;-71
2022/06/05 12:44:28;;;;;;;23.23;20.98;;;22.10;99.90;;;;;;5048204;28;20063;-70
2022/06/05 12:47:16;;;;;;;24.20;21.83;;;22.10;99.90;;;;;;5054461;28;20048;-71
2022/06/05 12:49:54;;;;;;;24.27;21.70;;;22.20;99.90;;;;;;5053023;28;20040;-71
2022/06/05 12:52:36;;;;;;;23.95;20.75;;;22.20;99.90;;;;;;5055587;28;20061;-71
2022/06/05 12:55:08;;;;;;;22.95;20.60;;;22.20;99.90;;;;;;5054984;28;20114;-71
2022/06/05 12:57:46;;;;;;;23.65;21.50;;;22.20;99.90;;;;;;5051151;28;20052;-71
2022/06/05 13:00:35;;;;;;;24.95;21.83;;;22.30;99.90;;;;;;5050288;28;20048;-71
2022/06/05 13:03:22;;;;;;;24.50;22.02;;;22.30;99.90;;;;;;5057785;28;20466;-71
2022/06/05 13:06:09;;;;;;;25.83;19.85;;;22.40;99.90;;;;;;5060278;28;20052;-71
2022/06/05 13:08:54;;;;;;;23.60;21.30;;;22.40;99.90;;;;;;5054804;28;20053;-70
2022/06/05 13:11:40;;;;;;;24.35;21.67;;;22.50;99.90;;;;;;5054800;28;20053;-70
2022/06/05 13:14:31;;;;;;;24.10;19.10;;;22.60;99.90;;;;;;5058818;28;20052;-70
2022/06/05 13:16:56;;;;;;;21.55;19.08;;;22.60;99.90;;;;;;5049812;28;20048;-70
2022/06/05 13:19:28;;;;;;;21.77;19.08;;;22.70;99.90;;;;;;5047707;28;20311;-71